aviador You're here:

KBMG Decoded Metar

BLOOMINGTON in IN, USA
Report Time2017-09-23 17:53:00
UTC Time2017-09-23 18:19:30
Flight Rules vfr VFR
Wind130° at 06 kt
W.Decomp.*RWY 17: 4.7 kt HW 3.7 kt LCW
RWY 06: 1.9 kt HW 5.7 kt RCW
W.Rank130° ranks 20
Current wind is above 130° avg. (5.8)
Visibility9999 m
Phenomena:N/A
Clouds:N/A
Expected CloudBase > 6,400 ft AGL from Temp-Dew spread
CeilingNone
Temp32°C (ISA +19)
Dew Point16°C (38% RH)
Heat Index31.9°C
AAT31.8°C
QNH1019 hPa
Density Alt3,015 ft
Elevation843 ft
Report Wrong Elevation
Raw Report
METAR KBMG 231753Z 13006KT 10SM CLR 32/16 A3010 RMK AO2 SLP184 T03170161
10322 20167 58012 $=

Extra information for KBMG:More info

Metar Taf Metar & Taf Last 4 Metars F.Rules Stats Wind Profile Meteogram Temp Stats Airport Information Weather charts Add Link Nearby VenuesMetar ALERT Operation Metar Decoded Social comments

AIRNAV info for KBMG